createdAt,value
2024-01-16T00:02:06.575Z,96586.00
2024-01-16T00:04:33.451Z,96589.47
2024-01-16T00:07:00.339Z,96591.03
2024-01-16T00:09:27.144Z,96593.03
2024-01-16T00:11:53.947Z,96594.75
2024-01-16T00:14:20.945Z,96601.09
2024-01-16T00:16:50.835Z,96602.41
2024-01-16T00:19:17.972Z,96598.63
2024-01-16T00:21:47.668Z,96597.59
2024-01-16T00:24:17.591Z,96602.84
2024-01-16T00:26:44.778Z,96614.81
2024-01-16T00:29:13.767Z,96623.47
2024-01-16T00:31:40.875Z,96621.59
2024-01-16T00:34:08.080Z,96623.34
2024-01-16T00:36:35.065Z,96633.06
2024-01-16T00:39:04.868Z,96627.09
2024-01-16T00:41:31.711Z,96632.34
2024-01-16T00:43:58.576Z,96639.03
2024-01-16T00:46:25.347Z,96642.19
2024-01-16T00:48:52.477Z,96641.84
2024-01-16T00:51:19.265Z,96647.34
2024-01-16T00:53:46.204Z,96640.06
2024-01-16T00:56:14.105Z,96639.00
2024-01-16T00:58:41.049Z,96639.38
2024-01-16T01:01:08.239Z,96650.38
2024-01-16T01:03:35.074Z,96662.72
2024-01-16T01:06:02.413Z,96656.13
2024-01-16T01:08:29.544Z,96650.63
2024-01-16T01:10:56.605Z,96651.91
2024-01-16T01:13:23.659Z,96651.06
2024-01-16T01:15:50.837Z,96642.84
2024-01-16T01:18:17.746Z,96657.25
2024-01-16T01:20:44.886Z,96667.94
2024-01-16T01:23:12.129Z,96656.53
2024-01-16T01:25:39.019Z,96671.00
2024-01-16T01:28:05.965Z,96670.84
2024-01-16T01:30:33.444Z,96662.72
2024-01-16T01:33:00.440Z,96662.94
2024-01-16T01:35:27.636Z,96660.25
2024-01-16T01:37:56.937Z,96676.66
2024-01-16T01:40:23.977Z,96677.75
2024-01-16T01:42:50.765Z,96685.53
2024-01-16T01:45:17.635Z,96687.53
2024-01-16T01:47:44.632Z,96693.22
2024-01-16T01:50:11.783Z,96691.94
2024-01-16T01:52:40.315Z,96691.44
2024-01-16T01:55:12.300Z,96689.84
2024-01-16T01:57:39.098Z,96700.19
2024-01-16T02:00:06.427Z,96701.91
2024-01-16T02:02:33.585Z,96708.13
2024-01-16T02:05:00.461Z,96713.19
2024-01-16T02:07:27.567Z,96714.69
2024-01-16T02:09:54.556Z,96715.28
2024-01-16T02:12:23.066Z,96727.13
2024-01-16T02:14:51.475Z,96718.66
2024-01-16T02:17:18.436Z,96730.00
2024-01-16T02:19:45.571Z,96730.63
2024-01-16T02:22:15.066Z,96725.34
2024-01-16T02:24:41.882Z,96734.84
2024-01-16T02:27:11.657Z,96744.59
2024-01-16T02:29:46.169Z,96732.16
2024-01-16T02:32:14.577Z,96736.72
2024-01-16T02:34:42.752Z,96746.81
2024-01-16T02:37:09.876Z,96745.88
2024-01-16T02:39:39.541Z,96738.59
2024-01-16T02:42:09.171Z,96747.16
2024-01-16T02:44:36.025Z,96735.44
2024-01-16T02:47:03.322Z,96747.28
2024-01-16T02:49:33.506Z,96751.34
2024-01-16T02:52:00.380Z,96752.44
2024-01-16T02:54:27.190Z,96756.97
2024-01-16T02:56:54.098Z,96748.16
2024-01-16T02:59:20.941Z,96745.84
2024-01-16T03:01:48.043Z,96752.88
2024-01-16T03:04:14.886Z,96751.84
2024-01-16T03:06:47.177Z,96754.53
2024-01-16T03:09:14.150Z,96756.28
2024-01-16T03:11:40.912Z,96752.88
2024-01-16T03:14:07.829Z,96760.63
2024-01-16T03:16:34.904Z,96760.25
2024-01-16T03:19:02.052Z,96761.03
2024-01-16T03:21:28.847Z,96762.38
2024-01-16T03:23:56.126Z,96771.44
2024-01-16T03:26:23.619Z,96768.81
2024-01-16T03:28:53.512Z,96759.53
2024-01-16T03:31:22.733Z,96762.13
2024-01-16T03:33:49.663Z,96762.94
2024-01-16T03:36:17.004Z,96759.19
2024-01-16T03:38:44.358Z,96761.88
2024-01-16T03:41:14.665Z,96757.75
2024-01-16T03:43:41.941Z,96760.91
2024-01-16T03:46:08.967Z,96770.44
2024-01-16T03:48:35.874Z,96768.16
2024-01-16T03:51:03.850Z,96776.91
2024-01-16T03:53:30.622Z,96779.50
2024-01-16T03:55:57.788Z,96779.91
2024-01-16T03:58:24.687Z,96783.66
2024-01-16T04:00:52.516Z,96791.97
2024-01-16T04:03:19.410Z,96802.22
2024-01-16T04:05:46.331Z,96802.06
2024-01-16T04:08:13.773Z,96799.19
2024-01-16T04:10:41.120Z,96805.03
2024-01-16T04:13:07.899Z,96807.28
2024-01-16T04:15:40.880Z,96805.59
2024-01-16T04:18:08.465Z,96816.38
2024-01-16T04:20:35.458Z,96812.91
2024-01-16T04:23:02.687Z,96814.06
2024-01-16T04:25:29.541Z,96814.59
2024-01-16T04:27:56.438Z,96818.91
2024-01-16T04:30:23.356Z,96813.84
2024-01-16T04:32:53.298Z,96814.91
2024-01-16T04:35:20.709Z,96815.91
2024-01-16T04:37:47.832Z,96821.19
2024-01-16T04:40:14.594Z,96825.97
2024-01-16T04:42:41.480Z,96825.06
2024-01-16T04:45:08.635Z,96827.13
2024-01-16T04:47:35.633Z,96839.97
2024-01-16T04:50:02.759Z,96833.41
2024-01-16T04:52:29.916Z,96834.31
2024-01-16T04:54:56.669Z,96839.00
2024-01-16T04:57:24.357Z,96843.28
2024-01-16T04:59:51.517Z,96841.91
2024-01-16T05:02:19.433Z,96843.47
2024-01-16T05:04:50.590Z,96839.97
2024-01-16T05:07:17.413Z,96845.72
2024-01-16T05:09:45.410Z,96844.91
2024-01-16T05:12:12.395Z,96840.69
2024-01-16T05:14:39.636Z,96849.28
2024-01-16T05:17:06.498Z,96848.78
2024-01-16T05:19:33.436Z,96853.66
2024-01-16T05:22:00.336Z,96845.88
2024-01-16T05:24:27.131Z,96865.88
2024-01-16T05:26:54.220Z,96865.25
2024-01-16T05:29:21.140Z,96868.19
2024-01-16T05:31:48.021Z,96875.41
2024-01-16T05:34:14.974Z,96868.97
2024-01-16T05:36:41.768Z,96876.94
2024-01-16T05:39:09.704Z,96875.28
2024-01-16T05:41:36.971Z,96873.50
2024-01-16T05:44:06.783Z,96867.72
2024-01-16T05:46:33.802Z,96873.84
2024-01-16T05:49:00.822Z,96878.25
2024-01-16T05:51:29.049Z,96878.81
2024-01-16T05:53:58.638Z,96875.69
2024-01-16T05:56:25.538Z,96886.72
2024-01-16T05:58:53.516Z,96885.69
2024-01-16T06:01:20.554Z,96882.03
2024-01-16T06:03:50.210Z,96885.81
2024-01-16T06:06:17.690Z,96889.00
2024-01-16T06:08:45.061Z,96892.50
2024-01-16T06:11:14.608Z,96896.50
2024-01-16T06:13:42.043Z,96889.81
2024-01-16T06:16:09.538Z,96890.63
2024-01-16T06:18:37.192Z,96887.84
2024-01-16T06:21:05.944Z,96888.69
2024-01-16T06:23:32.726Z,96893.09
2024-01-16T06:26:01.500Z,96891.47
2024-01-16T06:28:28.367Z,96886.09
2024-01-16T06:30:55.254Z,96887.50
2024-01-16T06:33:22.170Z,96895.25
2024-01-16T06:36:02.092Z,96896.13
2024-01-16T06:38:29.244Z,96897.59
2024-01-16T06:40:56.055Z,96904.78
2024-01-16T06:43:22.897Z,96902.44
2024-01-16T06:45:52.757Z,96914.16
2024-01-16T06:48:19.801Z,96912.03
2024-01-16T06:50:47.027Z,96915.53
2024-01-16T06:53:16.835Z,96914.41
2024-01-16T06:55:43.972Z,96914.81
2024-01-16T06:58:11.565Z,96915.53
2024-01-16T07:00:38.638Z,96918.25
2024-01-16T07:03:05.867Z,96924.50
2024-01-16T07:05:32.723Z,96924.28
2024-01-16T07:07:59.891Z,96931.88
2024-01-16T07:10:26.714Z,96937.31
2024-01-16T07:12:53.466Z,96936.44
2024-01-16T07:15:20.317Z,96935.19
2024-01-16T07:17:47.942Z,96933.88
2024-01-16T07:20:14.889Z,96944.06
2024-01-16T07:22:43.027Z,96947.28
2024-01-16T07:25:10.074Z,96944.75
2024-01-16T07:27:37.039Z,96956.44
2024-01-16T07:30:07.679Z,96955.22
2024-01-16T07:32:34.966Z,96950.78
2024-01-16T07:35:04.494Z,96957.91
2024-01-16T07:37:31.483Z,96956.16
2024-01-16T07:39:58.338Z,96954.13
2024-01-16T07:42:25.539Z,96955.22
2024-01-16T07:44:56.761Z,96948.66
2024-01-16T07:47:23.679Z,96950.50
2024-01-16T07:49:50.948Z,96951.81
2024-01-16T07:52:17.788Z,96944.31
2024-01-16T07:54:53.625Z,96957.25
2024-01-16T07:57:20.472Z,96953.56
2024-01-16T07:59:47.792Z,96957.06
2024-01-16T08:02:14.680Z,96959.53
2024-01-16T08:04:41.584Z,96959.59
2024-01-16T08:07:09.738Z,96953.69
2024-01-16T08:09:38.101Z,96961.94
2024-01-16T08:12:07.046Z,96967.34
2024-01-16T08:14:34.154Z,96967.09
2024-01-16T08:17:01.074Z,96971.69
2024-01-16T08:19:27.900Z,96970.53
2024-01-16T08:21:58.747Z,96971.97
2024-01-16T08:24:25.830Z,96970.34
2024-01-16T08:26:52.777Z,96967.69
2024-01-16T08:29:19.715Z,96959.63
2024-01-16T08:31:48.367Z,96958.22
2024-01-16T08:34:15.322Z,96966.28
2024-01-16T08:36:42.275Z,96960.16
2024-01-16T08:39:09.493Z,96966.38
2024-01-16T08:41:36.346Z,96970.06
2024-01-16T08:44:03.226Z,96968.63
2024-01-16T08:46:30.083Z,96971.75
2024-01-16T08:48:56.981Z,96970.16
2024-01-16T08:51:25.092Z,96973.91
2024-01-16T08:53:53.367Z,96979.31
2024-01-16T08:56:21.901Z,96979.06
2024-01-16T08:58:48.743Z,96982.44
2024-01-16T09:01:16.174Z,96978.91
2024-01-16T09:03:44.646Z,96979.16
2024-01-16T09:06:12.190Z,96980.84
2024-01-16T09:08:39.232Z,96993.78
2024-01-16T09:11:06.150Z,96991.13
2024-01-16T09:13:33.116Z,96994.34
2024-01-16T09:15:59.955Z,96992.72
2024-01-16T09:18:27.163Z,96995.31
2024-01-16T09:20:56.342Z,97003.69
2024-01-16T09:23:23.413Z,97000.78
2024-01-16T09:25:51.510Z,96993.47
2024-01-16T09:28:18.937Z,96990.91
2024-01-16T09:30:46.102Z,96998.41
2024-01-16T09:33:14.820Z,96997.59
2024-01-16T09:35:42.360Z,96997.50
2024-01-16T09:38:09.964Z,96995.53
2024-01-16T09:40:36.975Z,96998.06
2024-01-16T09:43:05.831Z,97001.78
2024-01-16T09:45:32.785Z,97002.00
2024-01-16T09:48:03.556Z,97003.81
2024-01-16T09:50:31.039Z,97002.34
2024-01-16T09:53:00.269Z,96997.88
2024-01-16T09:55:28.248Z,97009.91
2024-01-16T09:57:55.081Z,97004.44
2024-01-16T10:00:22.280Z,97006.75
2024-01-16T10:02:49.444Z,97007.66
2024-01-16T10:05:16.455Z,96997.13
2024-01-16T10:07:46.832Z,96999.34
2024-01-16T10:10:13.689Z,96996.78
2024-01-16T10:12:40.926Z,96993.53
2024-01-16T10:15:11.127Z,97000.03
2024-01-16T10:17:42.504Z,97002.56
2024-01-16T10:20:15.001Z,97004.44
2024-01-16T10:22:42.313Z,97005.66
2024-01-16T10:25:10.950Z,97007.41
2024-01-16T10:27:39.806Z,96993.34
2024-01-16T10:30:08.768Z,96989.38
2024-01-16T10:32:56.586Z,96985.41
2024-01-16T10:35:27.108Z,96993.78
2024-01-16T10:38:02.169Z,96984.34
2024-01-16T10:40:34.727Z,96980.59
2024-01-16T10:43:04.672Z,96983.41
2024-01-16T10:45:32.647Z,96987.94
2024-01-16T10:48:07.354Z,96994.88
2024-01-16T10:50:38.756Z,96992.78
2024-01-16T10:53:06.852Z,96996.13
2024-01-16T10:55:52.631Z,96986.09
2024-01-16T10:58:22.185Z,96981.34
2024-01-16T11:00:50.178Z,96978.81
2024-01-16T11:03:27.845Z,96973.13
2024-01-16T11:05:54.985Z,96986.50
2024-01-16T11:08:22.991Z,96982.78
2024-01-16T11:10:51.640Z,96980.81
2024-01-16T11:13:18.487Z,96988.22
2024-01-16T11:15:45.286Z,96982.75
2024-01-16T11:18:12.942Z,96981.25
2024-01-16T11:21:01.322Z,96985.25
2024-01-16T11:23:26.877Z,96989.28
2024-01-16T11:25:53.759Z,96993.53
2024-01-16T11:28:21.074Z,96991.88
2024-01-16T11:30:49.340Z,96999.38
2024-01-16T11:33:35.101Z,96993.22
2024-01-16T11:36:03.149Z,96985.66
2024-01-16T11:38:36.855Z,96999.16
2024-01-16T11:41:03.905Z,96991.50
2024-01-16T11:43:34.342Z,96993.56
2024-01-16T11:46:11.088Z,96991.44
2024-01-16T11:48:40.003Z,96985.88
2024-01-16T11:51:25.946Z,96991.63
2024-01-16T11:53:52.873Z,96994.84
2024-01-16T11:56:27.450Z,96990.56
2024-01-16T11:59:50.050Z,97003.78
2024-01-16T12:02:21.722Z,96999.25
2024-01-16T12:04:57.850Z,97003.94
2024-01-16T12:07:24.881Z,97002.19
2024-01-16T12:09:53.259Z,96997.69
2024-01-16T12:12:23.483Z,96996.44
2024-01-16T12:14:56.618Z,96991.97
2024-01-16T12:17:25.409Z,96998.06
2024-01-16T12:19:52.447Z,96999.31
2024-01-16T12:22:25.230Z,96992.44
2024-01-16T12:24:56.711Z,96986.94
2024-01-16T12:27:23.792Z,96983.84
2024-01-16T12:29:53.175Z,96979.44
2024-01-16T12:32:23.843Z,96973.19
2024-01-16T12:34:51.387Z,96968.28
2024-01-16T12:37:18.392Z,96970.47
2024-01-16T12:39:45.393Z,96964.31
2024-01-16T12:42:13.093Z,96961.09
2024-01-16T12:44:40.154Z,96962.78
2024-01-16T12:47:07.154Z,96958.22
2024-01-16T12:49:34.439Z,96960.56
2024-01-16T12:52:22.239Z,96951.13
2024-01-16T12:54:50.420Z,96938.69
2024-01-16T12:57:26.460Z,96942.53
2024-01-16T12:59:54.220Z,96935.59
2024-01-16T13:02:23.256Z,96940.97
2024-01-16T13:04:58.761Z,96945.53
2024-01-16T13:07:27.320Z,96951.63
2024-01-16T13:10:13.554Z,96943.44
2024-01-16T13:12:40.852Z,96947.56
2024-01-16T13:15:08.241Z,96950.47
2024-01-16T13:17:36.009Z,96949.66
2024-01-16T13:20:05.613Z,96950.47
2024-01-16T13:22:40.664Z,96954.91
2024-01-16T13:25:12.785Z,96953.19
2024-01-16T13:27:39.579Z,96955.53
2024-01-16T13:30:07.793Z,96958.50
2024-01-16T13:32:38.709Z,96959.69
2024-01-16T13:35:10.216Z,96959.34
2024-01-16T13:37:39.102Z,96964.88
2024-01-16T13:40:21.487Z,96962.53
2024-01-16T13:42:49.888Z,96955.53
2024-01-16T13:45:18.178Z,96953.53
2024-01-16T13:47:45.541Z,96948.34
2024-01-16T13:50:13.390Z,96954.69
2024-01-16T13:52:41.802Z,96950.13
2024-01-16T13:55:08.832Z,96955.03
2024-01-16T13:57:38.927Z,96958.56
2024-01-16T14:00:07.932Z,96953.66
2024-01-16T14:02:42.479Z,96959.19
2024-01-16T14:05:27.845Z,96962.56
2024-01-16T14:07:56.329Z,96963.72
2024-01-16T14:10:26.668Z,96971.59
2024-01-16T14:12:53.606Z,96966.75
2024-01-16T14:15:23.583Z,96953.78
2024-01-16T14:17:54.482Z,96955.28
2024-01-16T14:20:27.422Z,96953.63
2024-01-16T14:22:56.100Z,96944.38
2024-01-16T14:25:25.846Z,96942.38
2024-01-16T14:28:07.722Z,96945.66
2024-01-16T14:30:37.139Z,96951.28
2024-01-16T14:33:04.521Z,96946.31
2024-01-16T14:35:31.470Z,96935.13
2024-01-16T14:37:58.395Z,96932.16
2024-01-16T14:40:28.745Z,96932.28
2024-01-16T14:42:57.676Z,96929.47
2024-01-16T14:45:26.423Z,96933.56
2024-01-16T14:47:55.074Z,96938.59
2024-01-16T14:50:23.324Z,96936.75
2024-01-16T14:52:52.697Z,96935.59
2024-01-16T14:55:22.241Z,96941.94
2024-01-16T14:57:54.410Z,96938.03
2024-01-16T15:00:21.474Z,96942.50
2024-01-16T15:02:49.152Z,96946.50
2024-01-16T15:05:16.779Z,96948.03
2024-01-16T15:07:44.176Z,96957.28
2024-01-16T15:10:12.631Z,96957.75
2024-01-16T15:12:43.012Z,96963.28
2024-01-16T15:15:11.497Z,96964.19
2024-01-16T15:17:44.859Z,96962.44
2024-01-16T15:20:12.339Z,96960.34
2024-01-16T15:22:46.782Z,96961.03
2024-01-16T15:25:15.306Z,96958.56
2024-01-16T15:27:42.229Z,96960.19
2024-01-16T15:30:09.991Z,96963.38
2024-01-16T15:32:36.843Z,96963.63
2024-01-16T15:35:08.224Z,96961.34
2024-01-16T15:37:36.007Z,96957.59
2024-01-16T15:40:02.905Z,96950.81
2024-01-16T15:42:29.960Z,96955.38
2024-01-16T15:44:56.786Z,96946.13
2024-01-16T15:47:33.921Z,96947.28
2024-01-16T15:50:02.092Z,96934.72
2024-01-16T15:52:29.453Z,96939.88
2024-01-16T15:54:57.322Z,96948.22
2024-01-16T15:57:24.487Z,96942.25
2024-01-16T15:59:51.322Z,96947.97
2024-01-16T16:02:18.215Z,96939.56
2024-01-16T16:04:45.808Z,96942.69
2024-01-16T16:07:12.663Z,96939.53
2024-01-16T16:09:39.922Z,96930.72
2024-01-16T16:12:08.149Z,96932.97
2024-01-16T16:14:40.740Z,96934.28
2024-01-16T16:17:09.850Z,96944.53
2024-01-16T16:19:37.231Z,96941.88
2024-01-16T16:22:08.296Z,96945.22
2024-01-16T16:24:36.254Z,96955.75
2024-01-16T16:27:05.998Z,96954.09
2024-01-16T16:29:33.426Z,96956.28
2024-01-16T16:32:00.694Z,96966.97
2024-01-16T16:34:39.690Z,96966.06
2024-01-16T16:37:07.980Z,96961.31
2024-01-16T16:39:35.539Z,96963.69
2024-01-16T16:42:02.554Z,96959.06
2024-01-16T16:44:29.491Z,96962.97
2024-01-16T16:46:57.277Z,96961.72
2024-01-16T16:49:24.201Z,96963.97
2024-01-16T16:51:50.949Z,96965.94
2024-01-16T16:54:17.874Z,96967.53
2024-01-16T16:56:46.013Z,96968.41
2024-01-16T16:59:13.760Z,96963.94
2024-01-16T17:01:41.109Z,96969.00
2024-01-16T17:04:08.302Z,96967.63
2024-01-16T17:06:35.455Z,96969.84
2024-01-16T17:09:02.438Z,96969.72
2024-01-16T17:11:29.346Z,96966.19
2024-01-16T17:13:56.550Z,96970.44
2024-01-16T17:16:25.039Z,96971.00
2024-01-16T17:18:52.036Z,96966.91
2024-01-16T17:21:19.212Z,96971.94
2024-01-16T17:23:46.174Z,96972.66
2024-01-16T17:26:13.474Z,96972.75
2024-01-16T17:28:58.270Z,96969.94
2024-01-16T17:31:25.205Z,96974.28
2024-01-16T17:33:53.891Z,96976.84
2024-01-16T17:36:21.830Z,96979.88
2024-01-16T17:38:50.263Z,96976.94
2024-01-16T17:41:21.679Z,96980.72
2024-01-16T17:43:50.415Z,96972.97
2024-01-16T17:46:17.430Z,96980.00
2024-01-16T17:48:46.900Z,96978.25
2024-01-16T17:51:14.293Z,96984.22
2024-01-16T17:53:49.373Z,96978.84
2024-01-16T17:56:18.518Z,96981.63
2024-01-16T17:58:45.598Z,96991.75
2024-01-16T18:01:13.235Z,96988.06
2024-01-16T18:03:44.958Z,96987.22
2024-01-16T18:06:21.877Z,96988.41
2024-01-16T18:08:52.195Z,96986.16
2024-01-16T18:11:19.366Z,96987.94
2024-01-16T18:13:46.702Z,96983.50
2024-01-16T18:16:15.147Z,96980.00
2024-01-16T18:18:42.414Z,96980.94
2024-01-16T18:21:09.593Z,96979.28
2024-01-16T18:23:37.101Z,96984.69
2024-01-16T18:26:09.491Z,96986.44
2024-01-16T18:28:37.091Z,96991.44
2024-01-16T18:31:05.769Z,96986.88
2024-01-16T18:33:34.242Z,96993.28
2024-01-16T18:36:03.725Z,96987.78
2024-01-16T18:38:30.799Z,96979.44
2024-01-16T18:40:59.773Z,96987.41
2024-01-16T18:43:29.066Z,96970.56
2024-01-16T18:45:56.371Z,96974.63
2024-01-16T18:48:23.436Z,96961.28
2024-01-16T18:50:56.041Z,96954.00
2024-01-16T18:53:23.128Z,96957.66
2024-01-16T18:55:53.491Z,96949.44
2024-01-16T18:58:20.904Z,96952.22
2024-01-16T19:00:51.771Z,96951.88
2024-01-16T19:03:23.869Z,96944.06
2024-01-16T19:05:59.748Z,96945.56
2024-01-16T19:08:26.863Z,96946.88
2024-01-16T19:10:55.034Z,96936.28
2024-01-16T19:13:25.606Z,96939.88
2024-01-16T19:15:55.890Z,96942.25
2024-01-16T19:18:22.919Z,96940.38
2024-01-16T19:20:53.186Z,96936.66
2024-01-16T19:23:21.248Z,96940.09
2024-01-16T19:25:50.390Z,96924.31
2024-01-16T19:28:17.856Z,96934.38
2024-01-16T19:30:45.002Z,96931.41
2024-01-16T19:33:13.032Z,96929.94
2024-01-16T19:35:40.000Z,96930.00
2024-01-16T19:38:07.083Z,96919.34
2024-01-16T19:40:33.890Z,96925.78
2024-01-16T19:43:06.241Z,96915.47
2024-01-16T19:45:33.669Z,96917.66
2024-01-16T19:48:01.905Z,96911.69
2024-01-16T19:50:30.044Z,96909.84
2024-01-16T19:52:59.032Z,96908.94
2024-01-16T19:55:26.301Z,96910.47
2024-01-16T19:57:58.571Z,96907.44
2024-01-16T20:00:25.531Z,96903.03
2024-01-16T20:02:52.650Z,96914.19
2024-01-16T20:05:20.421Z,96910.72
2024-01-16T20:07:47.696Z,96910.25
2024-01-16T20:10:15.814Z,96911.81
2024-01-16T20:12:48.773Z,96909.97
2024-01-16T20:15:17.034Z,96906.78
2024-01-16T20:17:44.515Z,96904.81
2024-01-16T20:20:14.660Z,96906.59
2024-01-16T20:22:45.133Z,96904.78
2024-01-16T20:25:14.850Z,96903.91
2024-01-16T20:27:43.872Z,96899.53
2024-01-16T20:30:11.852Z,96894.97
2024-01-16T20:32:44.866Z,96889.38
2024-01-16T20:35:13.465Z,96884.28
2024-01-16T20:37:43.832Z,96884.91
2024-01-16T20:40:11.344Z,96889.63
2024-01-16T20:42:38.449Z,96889.22
2024-01-16T20:45:06.972Z,96887.91
2024-01-16T20:47:34.475Z,96890.31
2024-01-16T20:50:01.865Z,96889.75
2024-01-16T20:52:28.641Z,96883.75
2024-01-16T20:54:55.490Z,96882.31
2024-01-16T20:57:22.330Z,96878.97
2024-01-16T20:59:49.358Z,96873.25
2024-01-16T21:02:19.143Z,96867.47
2024-01-16T21:04:46.923Z,96868.34
2024-01-16T21:07:14.252Z,96864.78
2024-01-16T21:09:41.770Z,96870.38
2024-01-16T21:12:09.190Z,96864.13
2024-01-16T21:14:36.177Z,96866.69
2024-01-16T21:17:08.824Z,96868.69
2024-01-16T21:19:38.213Z,96857.03
2024-01-16T21:22:07.735Z,96857.41
2024-01-16T21:24:35.230Z,96854.59
2024-01-16T21:27:02.607Z,96848.84
2024-01-16T21:29:29.606Z,96849.56
2024-01-16T21:31:57.939Z,96845.97
2024-01-16T21:34:24.953Z,96851.25
2024-01-16T21:36:53.060Z,96850.75
2024-01-16T21:39:21.548Z,96857.31
2024-01-16T21:41:48.558Z,96857.63
2024-01-16T21:44:15.470Z,96858.97
2024-01-16T21:46:43.804Z,96861.94
2024-01-16T21:49:14.142Z,96857.81
2024-01-16T21:51:45.116Z,96850.44
2024-01-16T21:54:12.464Z,96844.88
2024-01-16T21:56:39.389Z,96844.50
2024-01-16T21:59:06.223Z,96840.38
2024-01-16T22:01:33.123Z,96840.47
2024-01-16T22:04:01.291Z,96841.69
2024-01-16T22:06:28.248Z,96832.03
2024-01-16T22:08:57.712Z,96831.28
2024-01-16T22:11:24.616Z,96835.75
2024-01-16T22:13:51.548Z,96831.13
2024-01-16T22:16:18.383Z,96831.94
2024-01-16T22:18:47.565Z,96833.19
2024-01-16T22:21:17.173Z,96827.09
2024-01-16T22:23:44.123Z,96826.31
2024-01-16T22:26:16.495Z,96818.63
2024-01-16T22:28:45.885Z,96812.09
2024-01-16T22:31:12.903Z,96818.78
2024-01-16T22:33:40.218Z,96818.69
2024-01-16T22:36:07.972Z,96803.63
2024-01-16T22:38:38.650Z,96803.00
2024-01-16T22:41:08.324Z,96800.84
2024-01-16T22:43:44.387Z,96788.22
2024-01-16T22:46:11.867Z,96782.44
2024-01-16T22:48:39.918Z,96773.31
2024-01-16T22:51:07.029Z,96774.34
2024-01-16T22:53:33.861Z,96765.66
2024-01-16T22:56:00.651Z,96765.44
2024-01-16T22:58:27.547Z,96756.53
2024-01-16T23:00:54.925Z,96756.63
2024-01-16T23:03:23.635Z,96752.63
2024-01-16T23:05:50.564Z,96745.22
2024-01-16T23:08:20.004Z,96741.00
2024-01-16T23:10:47.891Z,96743.56
2024-01-16T23:13:14.936Z,96742.47
2024-01-16T23:15:46.516Z,96735.69
2024-01-16T23:18:15.109Z,96742.09
2024-01-16T23:20:42.173Z,96742.56
2024-01-16T23:23:13.062Z,96743.31
2024-01-16T23:25:40.117Z,96744.47
2024-01-16T23:28:07.212Z,96736.00
2024-01-16T23:30:34.861Z,96733.13
2024-01-16T23:33:02.359Z,96733.75
2024-01-16T23:35:29.329Z,96737.69
2024-01-16T23:37:56.973Z,96737.09
2024-01-16T23:40:24.227Z,96733.13
2024-01-16T23:42:53.763Z,96724.44
2024-01-16T23:45:27.536Z,96718.28
2024-01-16T23:47:59.719Z,96708.88
2024-01-16T23:50:26.836Z,96704.59
2024-01-16T23:52:54.570Z,96696.81
2024-01-16T23:55:27.368Z,96693.00
2024-01-16T23:57:55.831Z,96678.38
